createdAt,value
2019-04-30T00:00:48.353Z,38.03
2019-04-30T00:03:21.388Z,37.20
2019-04-30T00:05:53.868Z,42.17
2019-04-30T00:08:19.916Z,38.80
2019-04-30T00:10:48.394Z,39.40
2019-04-30T00:13:20.613Z,41.20
2019-04-30T00:15:48.043Z,36.67
2019-04-30T00:18:17.046Z,41.30
2019-04-30T00:20:47.074Z,38.80
2019-04-30T00:23:17.720Z,41.87
2019-04-30T00:25:46.082Z,42.47
2019-04-30T00:28:15.545Z,41.07
2019-04-30T00:30:47.309Z,41.33
2019-04-30T00:33:15.271Z,42.73
2019-04-30T00:35:45.358Z,43.20
2019-04-30T00:38:15.130Z,43.13
2019-04-30T00:40:45.039Z,43.83
2019-04-30T00:43:15.454Z,40.70
2019-04-30T00:45:44.858Z,48.40
2019-04-30T00:48:19.393Z,40.00
2019-04-30T00:50:45.718Z,45.90
2019-04-30T00:53:14.865Z,48.83
2019-04-30T00:55:48.278Z,48.03
2019-04-30T00:58:19.703Z,46.67
2019-04-30T01:00:46.242Z,41.93
2019-04-30T01:03:16.722Z,45.67
2019-04-30T01:05:47.896Z,49.37
2019-04-30T01:08:15.670Z,43.33
2019-04-30T01:10:45.963Z,46.03
2019-04-30T01:13:14.521Z,51.50
2019-04-30T01:15:43.950Z,50.23
2019-04-30T01:18:13.054Z,46.83
2019-04-30T01:20:41.453Z,50.57
2019-04-30T01:23:12.169Z,46.50
2019-04-30T01:25:43.215Z,50.47
2019-04-30T01:28:10.881Z,44.73
2019-04-30T01:30:39.599Z,49.00
2019-04-30T01:33:09.162Z,51.60
2019-04-30T01:35:38.204Z,46.93
2019-04-30T01:38:11.070Z,49.60
2019-04-30T01:40:42.908Z,47.13
2019-04-30T01:43:11.529Z,47.87
2019-04-30T01:45:39.941Z,46.97
2019-04-30T01:48:10.763Z,49.07
2019-04-30T01:50:41.900Z,49.03
2019-04-30T01:53:11.495Z,44.50
2019-04-30T01:55:49.462Z,50.27
2019-04-30T01:58:19.559Z,51.70
2019-04-30T02:01:01.061Z,47.23
2019-04-30T02:03:29.469Z,45.43
2019-04-30T02:05:59.537Z,42.83
2019-04-30T02:08:29.487Z,42.73
2019-04-30T02:10:59.479Z,45.93
2019-04-30T02:13:29.527Z,45.40
2019-04-30T02:15:59.256Z,43.20
2019-04-30T02:18:29.548Z,43.93
2019-04-30T02:20:59.487Z,43.13
2019-04-30T02:23:29.679Z,42.97
2019-04-30T02:25:58.969Z,42.70
2019-04-30T02:28:29.005Z,44.93
2019-04-30T02:30:59.904Z,43.20
2019-04-30T02:33:30.648Z,42.30
2019-04-30T02:36:03.880Z,42.10
2019-04-30T02:38:39.486Z,45.97
2019-04-30T02:41:09.840Z,45.63
2019-04-30T02:43:40.684Z,45.43
2019-04-30T02:46:10.099Z,42.80
2019-04-30T02:48:40.275Z,42.77
2019-04-30T02:51:10.921Z,43.43
2019-04-30T02:54:03.149Z,45.60
2019-04-30T02:56:31.819Z,46.77
2019-04-30T02:59:03.614Z,43.13
2019-04-30T03:01:30.699Z,40.90
2019-04-30T03:03:59.773Z,44.87
2019-04-30T03:06:30.423Z,42.10
2019-04-30T03:09:01.114Z,43.47
2019-04-30T03:11:30.073Z,43.60
2019-04-30T03:13:59.388Z,43.10
2019-04-30T03:16:32.496Z,47.80
2019-04-30T03:19:11.684Z,44.33
2019-04-30T03:21:41.725Z,44.17
2019-04-30T03:24:11.252Z,46.53
2019-04-30T03:26:40.378Z,46.43
2019-04-30T03:29:11.328Z,54.87
2019-04-30T03:31:43.815Z,54.23
2019-04-30T03:34:16.885Z,54.43
2019-04-30T03:36:40.370Z,55.23
2019-04-30T03:39:10.743Z,60.30
2019-04-30T03:41:41.251Z,56.90
2019-04-30T03:44:20.994Z,51.50
2019-04-30T03:46:40.305Z,51.90
2019-04-30T03:49:12.557Z,56.67
2019-04-30T03:51:40.245Z,57.33
2019-04-30T03:54:10.256Z,55.00
2019-04-30T03:56:39.584Z,56.10
2019-04-30T03:59:10.608Z,57.90
2019-04-30T04:01:40.245Z,55.10
2019-04-30T04:04:20.089Z,58.57
2019-04-30T04:07:10.270Z,63.20
2019-04-30T04:09:43.049Z,57.37
2019-04-30T04:12:20.544Z,59.97
2019-04-30T04:14:50.973Z,61.33
2019-04-30T04:17:20.354Z,56.70
2019-04-30T04:19:50.034Z,59.70
2019-04-30T04:22:20.566Z,65.10
2019-04-30T04:24:50.614Z,66.27
2019-04-30T04:27:19.654Z,72.10
2019-04-30T04:29:51.035Z,61.83
2019-04-30T04:32:23.586Z,61.20
2019-04-30T04:34:50.545Z,59.50
2019-04-30T04:37:19.918Z,55.00
2019-04-30T04:39:50.183Z,57.33
2019-04-30T04:42:19.629Z,59.23
2019-04-30T04:44:50.321Z,56.10
2019-04-30T04:47:19.993Z,55.20
2019-04-30T04:49:50.771Z,57.77
2019-04-30T04:52:21.667Z,58.27
2019-04-30T04:54:50.667Z,55.63
2019-04-30T04:57:22.380Z,54.97
2019-04-30T04:59:52.000Z,56.10
2019-04-30T05:02:32.132Z,55.27
2019-04-30T05:04:59.978Z,53.00
2019-04-30T05:07:28.733Z,47.57
2019-04-30T05:10:00.535Z,48.40
2019-04-30T05:12:27.358Z,47.07
2019-04-30T05:14:55.775Z,43.77
2019-04-30T05:17:24.181Z,45.23
2019-04-30T05:19:52.605Z,39.90
2019-04-30T05:22:21.018Z,38.20
2019-04-30T05:24:49.421Z,37.43
2019-04-30T05:27:19.711Z,36.30
2019-04-30T05:29:49.748Z,38.87
2019-04-30T05:32:19.677Z,39.00
2019-04-30T05:34:49.657Z,48.03
2019-04-30T05:37:18.706Z,39.67
2019-04-30T05:39:48.801Z,36.87
2019-04-30T05:42:18.474Z,37.53
2019-04-30T05:44:46.926Z,36.47
2019-04-30T05:47:15.337Z,37.00
2019-04-30T05:49:43.738Z,37.40
2019-04-30T05:52:12.145Z,36.90
2019-04-30T05:54:40.550Z,32.70
2019-04-30T05:57:09.545Z,35.30
2019-04-30T05:59:38.820Z,35.17
2019-04-30T06:02:08.873Z,32.10
2019-04-30T06:04:38.719Z,30.10
2019-04-30T06:07:08.634Z,30.80
2019-04-30T06:09:54.755Z,27.70
2019-04-30T06:12:24.803Z,28.27
2019-04-30T06:15:06.922Z,28.13
2019-04-30T06:17:36.970Z,28.20
2019-04-30T06:20:17.793Z,27.37
2019-04-30T06:22:38.641Z,27.20
2019-04-30T06:25:07.132Z,27.87
2019-04-30T06:27:35.617Z,26.97
2019-04-30T06:30:04.663Z,24.60
2019-04-30T06:32:33.082Z,28.53
2019-04-30T06:35:01.567Z,22.10
2019-04-30T06:37:31.656Z,24.97
2019-04-30T06:40:00.259Z,23.40
2019-04-30T06:42:29.321Z,24.00
2019-04-30T06:44:59.125Z,20.97
2019-04-30T06:47:33.093Z,19.47
2019-04-30T06:49:58.748Z,19.23
2019-04-30T06:52:29.293Z,20.90
2019-04-30T06:54:59.556Z,22.53
2019-04-30T06:57:29.507Z,19.63
2019-04-30T06:59:59.615Z,19.40
2019-04-30T07:02:30.672Z,23.07
2019-04-30T07:04:58.790Z,19.90
2019-04-30T07:07:38.436Z,20.90
2019-04-30T07:10:10.179Z,20.50
2019-04-30T07:12:43.767Z,19.87
2019-04-30T07:15:13.730Z,20.40
2019-04-30T07:17:42.329Z,18.10
2019-04-30T07:20:10.815Z,17.33
2019-04-30T07:22:45.503Z,17.10
2019-04-30T07:25:09.627Z,19.00
2019-04-30T07:27:40.119Z,16.77
2019-04-30T07:30:10.014Z,14.57
2019-04-30T07:35:09.300Z,13.32
2019-04-30T07:37:38.968Z,16.77
2019-04-30T07:40:09.119Z,13.38
2019-04-30T07:42:44.432Z,13.80
2019-04-30T07:45:09.623Z,14.25
2019-04-30T07:47:39.548Z,15.03
2019-04-30T07:50:10.789Z,14.63
2019-04-30T07:52:57.658Z,14.23
2019-04-30T07:55:09.808Z,13.50
2019-04-30T07:57:40.382Z,12.80
2019-04-30T08:00:15.610Z,11.65
2019-04-30T08:02:59.905Z,12.28
2019-04-30T08:05:29.952Z,11.43
2019-04-30T08:08:16.111Z,14.90
2019-04-30T08:10:29.721Z,11.75
2019-04-30T08:13:08.622Z,13.15
2019-04-30T08:15:29.563Z,12.35
2019-04-30T08:18:03.654Z,12.28
2019-04-30T08:20:29.533Z,10.90
2019-04-30T08:23:07.056Z,10.38
2019-04-30T08:25:29.080Z,10.43
2019-04-30T08:27:59.109Z,11.60
2019-04-30T08:30:29.912Z,10.53
2019-04-30T08:32:59.522Z,9.63
2019-04-30T08:35:29.665Z,10.65
2019-04-30T08:37:59.042Z,13.22
2019-04-30T08:40:29.626Z,11.00
2019-04-30T08:42:59.499Z,10.10
2019-04-30T08:45:31.067Z,8.95
2019-04-30T08:47:59.062Z,9.60
2019-04-30T08:50:29.506Z,13.38
2019-04-30T08:52:59.728Z,10.13
2019-04-30T08:55:30.301Z,10.43
2019-04-30T08:58:09.652Z,9.65
2019-04-30T09:00:29.729Z,9.73
2019-04-30T09:02:59.366Z,9.83
2019-04-30T09:05:30.591Z,9.60
2019-04-30T09:07:59.835Z,9.43
2019-04-30T09:10:29.411Z,8.55
2019-04-30T09:12:59.764Z,9.30
2019-04-30T09:15:29.095Z,9.40
2019-04-30T09:18:03.064Z,9.63
2019-04-30T09:20:29.173Z,9.10
2019-04-30T09:22:59.477Z,9.45
2019-04-30T09:25:28.731Z,9.55
2019-04-30T09:27:58.824Z,9.80
2019-04-30T09:30:27.390Z,10.32
2019-04-30T09:32:55.806Z,10.78
2019-04-30T09:35:24.217Z,9.45
2019-04-30T09:37:58.910Z,8.55
2019-04-30T09:40:22.809Z,9.68
2019-04-30T09:42:51.234Z,9.05
2019-04-30T09:45:19.642Z,9.10
2019-04-30T09:47:50.362Z,9.43
2019-04-30T09:50:18.869Z,9.08
2019-04-30T09:52:49.529Z,10.90
2019-04-30T09:55:19.332Z,8.90
2019-04-30T09:57:48.851Z,10.40
2019-04-30T10:00:19.413Z,9.08
2019-04-30T10:02:48.847Z,10.48
2019-04-30T10:05:19.250Z,10.98
2019-04-30T10:07:49.325Z,10.25
2019-04-30T10:10:20.105Z,10.20
2019-04-30T10:12:49.308Z,8.55
2019-04-30T10:15:28.974Z,7.92
2019-04-30T10:17:58.378Z,9.35
2019-04-30T10:20:38.766Z,8.50
2019-04-30T10:23:07.179Z,7.85
2019-04-30T10:25:35.670Z,11.60
2019-04-30T10:28:04.458Z,8.43
2019-04-30T10:30:36.505Z,8.80
2019-04-30T10:33:06.070Z,9.70
2019-04-30T10:35:35.224Z,8.53
2019-04-30T10:38:04.285Z,8.03
2019-04-30T10:40:32.733Z,7.83
2019-04-30T10:43:01.195Z,7.15
2019-04-30T10:45:30.017Z,7.05
2019-04-30T10:47:59.223Z,7.47
2019-04-30T10:50:27.763Z,6.58
2019-04-30T10:52:56.246Z,6.97
2019-04-30T10:55:24.659Z,6.35
2019-04-30T10:57:53.074Z,9.83
2019-04-30T11:00:36.354Z,7.35
2019-04-30T11:03:17.270Z,7.25
2019-04-30T11:05:35.813Z,6.28
2019-04-30T11:08:04.463Z,5.03
2019-04-30T11:10:33.510Z,7.42
2019-04-30T11:13:01.933Z,6.37
2019-04-30T11:15:30.402Z,8.25
2019-04-30T11:17:59.656Z,6.55
2019-04-30T11:20:29.815Z,7.80
2019-04-30T11:22:58.642Z,6.10
2019-04-30T11:25:28.518Z,6.97
2019-04-30T11:27:57.806Z,7.67
2019-04-30T11:30:26.823Z,7.08
2019-04-30T11:32:56.317Z,6.50
2019-04-30T11:35:25.034Z,5.78
2019-04-30T11:37:53.445Z,5.12
2019-04-30T11:40:34.251Z,5.25
2019-04-30T11:42:57.914Z,6.58
2019-04-30T11:45:46.229Z,4.65
2019-04-30T11:48:14.903Z,5.80
2019-04-30T11:50:43.614Z,5.05
2019-04-30T11:53:24.575Z,5.70
2019-04-30T11:55:42.239Z,5.12
2019-04-30T11:58:21.163Z,5.65
2019-04-30T12:00:42.434Z,7.28
2019-04-30T12:03:11.090Z,6.28
2019-04-30T12:05:39.519Z,4.95
2019-04-30T12:08:12.665Z,7.95
2019-04-30T12:11:01.326Z,29.12
2019-04-30T12:13:30.569Z,4.47
2019-04-30T12:15:59.134Z,5.83
2019-04-30T12:18:28.015Z,7.60
2019-04-30T12:20:56.431Z,5.97
2019-04-30T12:23:24.846Z,6.05
2019-04-30T12:25:53.419Z,5.72
2019-04-30T12:28:21.832Z,4.67
2019-04-30T12:30:50.250Z,4.17
2019-04-30T12:33:19.253Z,4.37
2019-04-30T12:35:49.149Z,4.30
2019-04-30T12:38:19.181Z,5.22
2019-04-30T12:40:47.976Z,5.08
2019-04-30T12:43:16.386Z,3.90
2019-04-30T12:45:44.857Z,4.25
2019-04-30T12:48:20.738Z,3.27
2019-04-30T12:50:56.202Z,4.37
2019-04-30T12:53:45.184Z,5.10
2019-04-30T12:56:30.311Z,3.98
2019-04-30T12:58:58.851Z,4.42
2019-04-30T13:01:31.665Z,6.60
2019-04-30T13:04:00.865Z,4.80
2019-04-30T13:06:28.027Z,4.30
2019-04-30T13:08:59.760Z,4.25
2019-04-30T13:11:29.866Z,3.67
2019-04-30T13:13:59.785Z,2.62
2019-04-30T13:16:29.246Z,2.92
2019-04-30T13:18:59.386Z,3.80
2019-04-30T13:21:28.501Z,4.60
2019-04-30T13:23:56.975Z,3.17
2019-04-30T13:26:25.386Z,3.65
2019-04-30T13:29:01.196Z,2.85
2019-04-30T13:31:29.607Z,3.75
2019-04-30T13:34:01.395Z,2.45
2019-04-30T13:36:29.787Z,4.12
2019-04-30T13:38:59.837Z,3.30
2019-04-30T13:41:30.557Z,2.98
2019-04-30T13:44:00.442Z,4.03
2019-04-30T13:46:28.926Z,3.42
2019-04-30T13:48:57.509Z,2.85
2019-04-30T13:51:25.935Z,2.50
2019-04-30T13:53:54.346Z,2.90
2019-04-30T13:56:22.762Z,3.35
2019-04-30T13:58:51.168Z,5.83
2019-04-30T14:01:21.466Z,2.80
2019-04-30T14:03:51.362Z,4.45
2019-04-30T14:06:28.950Z,2.52
2019-04-30T14:09:04.854Z,1.90
2019-04-30T14:11:33.451Z,4.67
2019-04-30T14:14:01.858Z,2.77
2019-04-30T14:16:30.286Z,2.47
2019-04-30T14:18:58.698Z,2.65
2019-04-30T14:21:33.182Z,2.75
2019-04-30T14:23:57.241Z,2.05
2019-04-30T14:26:25.654Z,2.50
2019-04-30T14:28:54.069Z,2.37
2019-04-30T14:31:22.569Z,4.05
2019-04-30T14:33:51.318Z,4.17
2019-04-30T14:36:19.735Z,4.12
2019-04-30T14:38:48.884Z,3.40
2019-04-30T14:41:17.926Z,2.20
2019-04-30T14:44:07.040Z,3.22
2019-04-30T14:46:44.033Z,2.95
2019-04-30T14:49:18.036Z,3.07
2019-04-30T14:51:49.026Z,1.92
2019-04-30T14:54:19.970Z,2.67
2019-04-30T14:57:06.222Z,4.35
2019-04-30T14:59:48.757Z,2.33
2019-04-30T15:02:30.995Z,3.97
2019-04-30T15:04:59.456Z,2.13
2019-04-30T15:07:29.538Z,2.45
2019-04-30T15:09:58.111Z,2.03
2019-04-30T15:12:26.611Z,2.90
2019-04-30T15:14:55.017Z,4.00
2019-04-30T15:17:23.475Z,2.43
2019-04-30T15:19:54.504Z,5.10
2019-04-30T15:22:22.022Z,2.87
2019-04-30T15:24:50.434Z,2.60
2019-04-30T15:27:19.210Z,2.60
2019-04-30T15:29:56.590Z,3.00
2019-04-30T15:32:18.599Z,5.30
2019-04-30T15:34:48.925Z,4.43
2019-04-30T15:37:21.675Z,2.37
2019-04-30T15:39:49.075Z,3.77
2019-04-30T15:42:18.718Z,3.00
2019-04-30T15:44:49.481Z,2.83
2019-04-30T15:47:18.904Z,3.13
2019-04-30T15:49:47.663Z,5.00
2019-04-30T15:52:16.073Z,2.37
2019-04-30T15:54:44.485Z,5.80
2019-04-30T15:57:12.882Z,3.47
2019-04-30T15:59:41.558Z,5.33
2019-04-30T16:02:11.843Z,4.03
2019-04-30T16:04:44.865Z,6.93
2019-04-30T16:07:13.272Z,3.37
2019-04-30T16:09:55.178Z,3.93
2019-04-30T16:12:41.633Z,3.20
2019-04-30T16:15:10.462Z,3.40
2019-04-30T16:17:40.510Z,3.33
2019-04-30T16:20:09.005Z,2.90
2019-04-30T16:22:39.090Z,3.63
2019-04-30T16:25:08.619Z,5.53
2019-04-30T16:27:37.129Z,5.23
2019-04-30T16:30:06.790Z,3.00
2019-04-30T16:32:35.187Z,5.93
2019-04-30T16:35:04.939Z,3.57
2019-04-30T16:37:33.442Z,3.17
2019-04-30T16:40:01.905Z,3.07
2019-04-30T16:42:30.398Z,4.47
2019-04-30T16:45:00.680Z,4.23
2019-04-30T16:47:29.714Z,3.17
2019-04-30T16:49:58.891Z,5.17
2019-04-30T16:52:29.298Z,4.10
2019-04-30T16:54:57.594Z,3.23
2019-04-30T16:57:26.009Z,3.37
2019-04-30T16:59:54.468Z,2.50
2019-04-30T17:02:24.509Z,4.20
2019-04-30T17:04:57.494Z,4.13
2019-04-30T17:07:36.422Z,3.13
2019-04-30T17:10:09.012Z,3.63
2019-04-30T17:12:39.226Z,2.90
2019-04-30T17:15:26.381Z,5.53
2019-04-30T17:17:54.790Z,3.47
2019-04-30T17:20:23.196Z,4.30
2019-04-30T17:22:51.650Z,2.87
2019-04-30T17:25:20.206Z,2.20
2019-04-30T17:27:48.714Z,2.97
2019-04-30T17:30:19.332Z,6.13
2019-04-30T17:32:49.810Z,4.70
2019-04-30T17:35:19.014Z,3.30
2019-04-30T17:37:47.654Z,5.80
2019-04-30T17:40:16.426Z,2.93
2019-04-30T17:42:44.851Z,5.53
2019-04-30T17:45:14.700Z,2.67
2019-04-30T17:47:43.107Z,2.03
2019-04-30T17:50:11.690Z,2.93
2019-04-30T17:52:40.104Z,3.50
2019-04-30T17:55:13.169Z,4.23
2019-04-30T17:57:41.586Z,2.63
2019-04-30T18:00:18.690Z,4.33
2019-04-30T18:02:43.685Z,4.03
2019-04-30T18:05:12.286Z,3.73
2019-04-30T18:07:41.040Z,2.97
2019-04-30T18:10:12.001Z,2.97
2019-04-30T18:12:40.421Z,3.77
2019-04-30T18:15:18.062Z,3.67
2019-04-30T18:18:04.395Z,7.40
2019-04-30T18:20:34.434Z,3.70
2019-04-30T18:23:16.925Z,3.57
2019-04-30T18:25:54.035Z,4.40
2019-04-30T18:28:22.450Z,5.93
2019-04-30T18:30:51.246Z,3.40
2019-04-30T18:33:19.686Z,6.00
2019-04-30T18:35:48.716Z,3.93
2019-04-30T18:38:17.784Z,4.23
2019-04-30T18:40:46.269Z,3.70
2019-04-30T18:43:15.059Z,3.50
2019-04-30T18:45:43.592Z,3.90
2019-04-30T18:48:12.007Z,3.43
2019-04-30T18:50:40.422Z,4.83
2019-04-30T18:53:13.173Z,6.37
2019-04-30T18:55:41.589Z,4.30
2019-04-30T18:58:10.000Z,7.50
2019-04-30T19:00:42.672Z,8.50
2019-04-30T19:03:11.300Z,18.33
2019-04-30T19:05:41.651Z,36.63
2019-04-30T19:08:11.717Z,40.57
2019-04-30T19:10:58.881Z,30.63
2019-04-30T19:13:30.082Z,25.20
2019-04-30T19:16:22.388Z,18.37
2019-04-30T19:18:44.040Z,11.93
2019-04-30T19:21:12.694Z,10.47
2019-04-30T19:23:41.183Z,13.10
2019-04-30T19:26:09.599Z,9.47
2019-04-30T19:28:38.731Z,9.43
2019-04-30T19:31:09.171Z,6.07
2019-04-30T19:33:38.914Z,8.50
2019-04-30T19:36:09.638Z,10.90
2019-04-30T19:38:37.699Z,10.90
2019-04-30T19:41:06.188Z,10.33
2019-04-30T19:43:34.615Z,9.17
2019-04-30T19:46:03.018Z,11.83
2019-04-30T19:48:31.442Z,20.47
2019-04-30T19:50:59.854Z,20.20
2019-04-30T19:53:30.248Z,11.43
2019-04-30T19:55:58.508Z,9.27
2019-04-30T19:58:46.364Z,7.43
2019-04-30T20:00:57.105Z,7.17
2019-04-30T20:03:25.556Z,7.53
2019-04-30T20:05:54.050Z,6.30
2019-04-30T20:08:22.458Z,7.00
2019-04-30T20:10:50.867Z,7.00
2019-04-30T20:13:31.341Z,18.10
2019-04-30T20:15:49.479Z,20.80
2019-04-30T20:18:19.023Z,19.13
2019-04-30T20:20:51.738Z,17.20
2019-04-30T20:23:19.541Z,14.60
2019-04-30T20:25:47.953Z,16.63
2019-04-30T20:28:16.686Z,11.23
2019-04-30T20:30:45.262Z,9.50
2019-04-30T20:33:13.669Z,9.03
2019-04-30T20:35:42.387Z,9.93
2019-04-30T20:38:15.735Z,9.67
2019-04-30T20:40:57.819Z,15.20
2019-04-30T20:43:15.922Z,5.97
2019-04-30T20:45:44.330Z,5.77
2019-04-30T20:48:12.736Z,9.63
2019-04-30T20:50:41.141Z,8.47
2019-04-30T20:53:09.556Z,7.73
2019-04-30T20:55:40.515Z,8.33
2019-04-30T20:58:09.480Z,6.60
2019-04-30T21:00:38.142Z,8.53
2019-04-30T21:03:06.547Z,10.03
2019-04-30T21:05:35.014Z,8.73
2019-04-30T21:08:03.643Z,8.30
2019-04-30T21:10:32.111Z,6.80
2019-04-30T21:13:00.517Z,7.37
2019-04-30T21:15:29.686Z,7.90
2019-04-30T21:17:58.700Z,6.57
2019-04-30T21:20:28.892Z,6.00
2019-04-30T21:22:59.468Z,5.40
2019-04-30T21:28:13.335Z,5.97
2019-04-30T21:30:41.738Z,5.33
2019-04-30T21:33:24.002Z,7.03
2019-04-30T21:35:54.118Z,5.13
2019-04-30T21:38:22.598Z,6.57
2019-04-30T21:40:51.073Z,7.20
2019-04-30T21:43:19.478Z,5.60
2019-04-30T21:45:49.402Z,7.10
2019-04-30T21:48:19.167Z,7.33
2019-04-30T21:50:49.591Z,6.10
2019-04-30T21:53:19.554Z,6.60
2019-04-30T21:55:49.683Z,5.30
2019-04-30T21:58:20.392Z,6.80
2019-04-30T22:01:10.486Z,6.83
2019-04-30T22:03:39.541Z,5.77
2019-04-30T22:06:08.406Z,5.57
2019-04-30T22:08:38.838Z,7.43
2019-04-30T22:11:07.359Z,9.07
2019-04-30T22:13:35.759Z,6.03
2019-04-30T22:16:04.326Z,6.33
2019-04-30T22:18:32.733Z,6.37
2019-04-30T22:21:01.185Z,5.53
2019-04-30T22:23:29.603Z,5.83
2019-04-30T22:25:58.011Z,8.00
2019-04-30T22:28:26.413Z,7.40
2019-04-30T22:30:54.818Z,7.57
2019-04-30T22:33:23.213Z,5.37
2019-04-30T22:35:53.266Z,5.20
2019-04-30T22:38:26.246Z,5.77
2019-04-30T22:40:54.650Z,6.93
2019-04-30T22:43:23.059Z,8.23
2019-04-30T22:45:53.106Z,7.97
2019-04-30T22:48:21.507Z,6.17
2019-04-30T22:50:50.009Z,5.80
2019-04-30T22:53:18.411Z,7.20
2019-04-30T22:55:46.817Z,6.60
2019-04-30T22:58:15.217Z,5.77
2019-04-30T23:00:45.334Z,5.37
2019-04-30T23:03:24.482Z,8.50
2019-04-30T23:05:52.884Z,8.77
2019-04-30T23:08:21.281Z,6.70
2019-04-30T23:10:49.689Z,6.47
2019-04-30T23:13:18.602Z,6.60
2019-04-30T23:15:49.914Z,5.10
2019-04-30T23:18:18.322Z,5.70
2019-04-30T23:20:46.730Z,7.33
2019-04-30T23:23:15.134Z,6.17
2019-04-30T23:25:43.540Z,5.43
2019-04-30T23:28:11.949Z,7.60
2019-04-30T23:30:40.361Z,5.93
2019-04-30T23:33:08.766Z,6.87
2019-04-30T23:35:37.178Z,7.47
2019-04-30T23:38:05.575Z,6.37
2019-04-30T23:40:45.866Z,8.63
2019-04-30T23:43:14.271Z,8.33
2019-04-30T23:45:42.682Z,9.20
2019-04-30T23:48:11.158Z,7.17
2019-04-30T23:50:39.565Z,8.53
2019-04-30T23:53:08.025Z,7.43
2019-04-30T23:55:36.419Z,6.80
2019-04-30T23:58:04.896Z,8.13
